Time,TemperatureF,DewpointF,PressureIn,WindDirection,WindDirectionDegrees,WindSpeedMPH,WindSpeedGustMPH,Humidity,HourlyPrecipIn,Conditions,Clouds,dailyrainin,SolarRadiationWatts/m^2,SoftwareType,DateUTC
2013-04-07 00:00:00,43.0,30.0,-100.00,SSE,157,10.0,-999.0,60,-99.99,,,-99.99,0.000000,,2013-04-07 04:00:00,
2013-04-07 00:43:00,43.0,30.0,-100.00,SSE,157,10.0,-999.0,60,-99.99,,,-99.99,0.000000,,2013-04-07 04:43:00,
2013-04-07 00:53:00,43.0,30.0,-100.00,SSE,157,10.0,-999.0,60,-99.99,,,-99.99,0.000000,,2013-04-07 04:53:00,
2013-04-07 01:00:00,44.0,31.0,-100.00,SSE,157,8.0,-999.0,60,-99.99,,,-99.99,0.000000,,2013-04-07 05:00:00,
2013-04-07 01:43:00,44.0,31.0,-100.00,SSE,157,8.0,-999.0,60,-99.99,,,-99.99,0.000000,,2013-04-07 05:43:00,
2013-04-07 01:53:00,44.0,31.0,-100.00,SSE,157,8.0,-999.0,60,-99.99,,,-99.99,0.000000,,2013-04-07 05:53:00,
2013-04-07 02:00:00,44.0,39.0,-100.00,SSE,157,9.0,-999.0,81,0.02,,,-99.99,0.000000,,2013-04-07 06:00:00,
2013-04-07 02:43:00,44.0,39.0,-100.00,SSE,157,9.0,-999.0,81,0.02,,,-99.99,0.000000,,2013-04-07 06:43:00,
2013-04-07 02:53:00,44.0,39.0,-100.00,SSE,157,9.0,-999.0,81,0.02,,,-99.99,0.000000,,2013-04-07 06:53:00,
2013-04-07 03:00:00,47.0,44.0,-100.00,SSW,202,10.0,-999.0,91,0.01,,,-99.99,0.000000,,2013-04-07 07:00:00,
2013-04-07 03:42:00,47.0,44.0,-100.00,SSW,202,10.0,-999.0,91,0.01,,,-99.99,0.000000,,2013-04-07 07:42:00,
2013-04-07 03:52:00,47.0,44.0,-100.00,SSW,202,10.0,-999.0,91,0.01,,,-99.99,0.000000,,2013-04-07 07:52:00,
2013-04-07 04:00:00,46.0,45.0,-100.00,SW,225,9.0,-999.0,94,0.07,,,-99.99,0.000000,,2013-04-07 08:00:00,
2013-04-07 04:43:00,46.0,45.0,-100.00,SW,225,9.0,-999.0,94,0.07,,,-99.99,0.000000,,2013-04-07 08:43:00,
2013-04-07 04:53:00,46.0,45.0,-100.00,SW,225,9.0,-999.0,94,0.07,,,-99.99,0.000000,,2013-04-07 08:53:00,
2013-04-07 05:00:00,40.0,39.0,-100.00,SW,225,9.0,-999.0,97,-99.99,,,-99.99,0.000000,,2013-04-07 09:00:00,
2013-04-07 05:45:00,40.0,39.0,-100.00,SW,225,9.0,-999.0,97,-99.99,,,-99.99,0.000000,,2013-04-07 09:45:00,
2013-04-07 05:54:00,40.0,39.0,-100.00,SW,225,9.0,-999.0,97,-99.99,,,-99.99,0.000000,,2013-04-07 09:54:00,
2013-04-07 06:00:00,36.0,35.0,-100.00,West,270,8.0,-999.0,98,0.02,,,-99.99,0.000000,,2013-04-07 10:00:00,
2013-04-07 06:54:00,36.0,35.0,-100.00,West,270,8.0,-999.0,98,0.02,,,-99.99,0.000000,,2013-04-07 10:54:00,
2013-04-07 07:00:00,34.0,34.0,-100.00,WNW,292,12.0,-999.0,99,0.04,,,-99.99,0.000000,,2013-04-07 11:00:00,
2013-04-07 07:43:00,34.0,34.0,-100.00,WNW,292,12.0,-999.0,99,0.04,,,-99.99,0.000000,,2013-04-07 11:43:00,
2013-04-07 07:53:00,34.0,34.0,-100.00,WNW,292,12.0,-999.0,99,0.04,,,-99.99,0.000000,,2013-04-07 11:53:00,
2013-04-07 08:00:00,32.0,32.0,-100.00,WNW,292,11.0,-999.0,99,-99.99,,,-99.99,1.160000,,2013-04-07 12:00:00,
2013-04-07 08:43:00,32.0,32.0,-100.00,WNW,292,11.0,-999.0,99,-99.99,,,-99.99,1.160000,,2013-04-07 12:43:00,
2013-04-07 08:54:00,32.0,32.0,-100.00,WNW,292,11.0,-999.0,99,-99.99,,,-99.99,1.160000,,2013-04-07 12:54:00,
2013-04-07 09:00:00,34.0,33.0,-100.00,WNW,292,10.0,-999.0,99,0.04,,,-99.99,16.240000,,2013-04-07 13:00:00,
2013-04-07 09:43:00,34.0,33.0,-100.00,WNW,292,10.0,-999.0,99,0.04,,,-99.99,16.240000,,2013-04-07 13:43:00,
2013-04-07 09:53:00,34.0,33.0,-100.00,WNW,292,10.0,-999.0,99,0.04,,,-99.99,16.240000,,2013-04-07 13:53:00,
2013-04-07 10:00:00,35.0,34.0,-100.00,West,270,9.0,-999.0,96,-99.99,,,-99.99,62.639999,,2013-04-07 14:00:00,
2013-04-07 10:45:00,35.0,34.0,-100.00,West,270,9.0,-999.0,96,-99.99,,,-99.99,62.639999,,2013-04-07 14:45:00,
2013-04-07 10:55:00,35.0,34.0,-100.00,West,270,9.0,-999.0,96,-99.99,,,-99.99,62.639999,,2013-04-07 14:55:00,
2013-04-07 11:00:00,35.0,33.0,-100.00,WNW,292,9.0,-999.0,94,-99.99,,,-99.99,85.839996,,2013-04-07 15:00:00,
2013-04-07 11:45:00,35.0,33.0,-100.00,WNW,292,9.0,-999.0,94,-99.99,,,-99.99,85.839996,,2013-04-07 15:45:00,
2013-04-07 11:55:00,35.0,33.0,-100.00,WNW,292,9.0,-999.0,94,-99.99,,,-99.99,85.839996,,2013-04-07 15:55:00,
2013-04-07 12:00:00,35.0,34.0,-100.00,WNW,292,8.0,-999.0,93,-99.99,,,-99.99,151.960007,,2013-04-07 16:00:00,
2013-04-07 12:44:00,35.0,34.0,-100.00,WNW,292,8.0,-999.0,93,-99.99,,,-99.99,151.960007,,2013-04-07 16:44:00,
2013-04-07 12:54:00,35.0,34.0,-100.00,WNW,292,8.0,-999.0,93,-99.99,,,-99.99,151.960007,,2013-04-07 16:54:00,
2013-04-07 13:00:00,35.0,33.0,-100.00,WNW,292,7.0,-999.0,92,-99.99,,,-99.99,129.919998,,2013-04-07 17:00:00,
2013-04-07 13:54:00,35.0,33.0,-100.00,WNW,292,7.0,-999.0,92,-99.99,,,-99.99,129.919998,,2013-04-07 17:54:00,
2013-04-07 14:00:00,36.0,33.0,-100.00,WNW,292,8.0,-999.0,90,-99.99,,,-99.99,254.039993,,2013-04-07 18:00:00,
2013-04-07 14:44:00,36.0,33.0,-100.00,WNW,292,8.0,-999.0,90,-99.99,,,-99.99,254.039993,,2013-04-07 18:44:00,
2013-04-07 14:53:00,36.0,33.0,-100.00,WNW,292,8.0,-999.0,90,-99.99,,,-99.99,254.039993,,2013-04-07 18:53:00,
2013-04-07 15:00:00,36.0,33.0,-100.00,WNW,292,9.0,-999.0,86,-99.99,,,-99.99,412.959991,,2013-04-07 19:00:00,
2013-04-07 15:43:00,36.0,33.0,-100.00,WNW,292,9.0,-999.0,86,-99.99,,,-99.99,412.959991,,2013-04-07 19:43:00,
2013-04-07 15:55:00,36.0,33.0,-100.00,WNW,292,9.0,-999.0,86,-99.99,,,-99.99,412.959991,,2013-04-07 19:55:00,
2013-04-07 16:00:00,37.0,32.0,-100.00,WNW,292,7.0,-999.0,82,-99.99,,,-99.99,409.480011,,2013-04-07 20:00:00,
2013-04-07 16:44:00,37.0,32.0,-100.00,WNW,292,7.0,-999.0,82,-99.99,,,-99.99,409.480011,,2013-04-07 20:44:00,
2013-04-07 16:55:00,37.0,32.0,-100.00,WNW,292,7.0,-999.0,82,-99.99,,,-99.99,409.480011,,2013-04-07 20:55:00,
2013-04-07 17:00:00,37.0,32.0,-100.00,WNW,292,6.0,-999.0,80,-99.99,,,-99.99,343.359985,,2013-04-07 21:00:00,
2013-04-07 17:45:00,37.0,32.0,-100.00,WNW,292,6.0,-999.0,80,-99.99,,,-99.99,343.359985,,2013-04-07 21:45:00,
2013-04-07 17:55:00,37.0,32.0,-100.00,WNW,292,6.0,-999.0,80,-99.99,,,-99.99,343.359985,,2013-04-07 21:55:00,
2013-04-07 18:00:00,37.0,31.0,-100.00,WNW,292,4.0,-999.0,77,-99.99,,,-99.99,194.880005,,2013-04-07 22:00:00,
2013-04-07 18:44:00,37.0,31.0,-100.00,WNW,292,4.0,-999.0,77,-99.99,,,-99.99,194.880005,,2013-04-07 22:44:00,
2013-04-07 18:54:00,37.0,31.0,-100.00,WNW,292,4.0,-999.0,77,-99.99,,,-99.99,194.880005,,2013-04-07 22:54:00,
2013-04-07 19:00:00,37.0,29.0,-100.00,WSW,247,2.0,-999.0,70,-99.99,,,-99.99,118.320000,,2013-04-07 23:00:00,
2013-04-07 19:43:00,37.0,29.0,-100.00,WSW,247,2.0,-999.0,70,-99.99,,,-99.99,118.320000,,2013-04-07 23:43:00,
2013-04-07 19:53:00,37.0,29.0,-100.00,WSW,247,2.0,-999.0,70,-99.99,,,-99.99,118.320000,,2013-04-07 23:53:00,
2013-04-07 20:00:00,37.0,28.0,-100.00,SE,135,2.0,-999.0,69,-99.99,,,-99.99,61.480000,,2013-04-08 00:00:00,
2013-04-07 20:43:00,37.0,28.0,-100.00,SE,135,2.0,-999.0,69,-99.99,,,-99.99,61.480000,,2013-04-08 00:43:00,
2013-04-07 20:53:00,37.0,28.0,-100.00,SE,135,2.0,-999.0,69,-99.99,,,-99.99,61.480000,,2013-04-08 00:53:00,
2013-04-07 21:00:00,33.0,27.0,-100.00,ESE,112,0.0,-999.0,79,-99.99,,,-99.99,3.480000,,2013-04-08 01:00:00,
2013-04-07 21:45:00,33.0,27.0,-100.00,ESE,112,0.0,-999.0,79,-99.99,,,-99.99,3.480000,,2013-04-08 01:45:00,
2013-04-07 21:55:00,33.0,27.0,-100.00,ESE,112,0.0,-999.0,79,-99.99,,,-99.99,3.480000,,2013-04-08 01:55:00,
2013-04-07 22:00:00,30.0,27.0,-100.00,SSE,157,0.0,-999.0,90,-99.99,,,-99.99,0.000000,,2013-04-08 02:00:00,
2013-04-07 22:49:00,30.0,27.0,-100.00,SSE,157,0.0,-999.0,90,-99.99,,,-99.99,0.000000,,2013-04-08 02:49:00,
2013-04-07 22:55:00,30.0,27.0,-100.00,SSE,157,0.0,-999.0,90,-99.99,,,-99.99,0.000000,,2013-04-08 02:55:00,
2013-04-07 23:00:00,29.0,27.0,-100.00,SSE,157,0.0,-999.0,95,-99.99,,,-99.99,0.000000,,2013-04-08 03:00:00,
2013-04-07 23:48:00,29.0,27.0,-100.00,SSE,157,0.0,-999.0,95,-99.99,,,-99.99,0.000000,,2013-04-08 03:48:00,
2013-04-07 23:58:00,29.0,27.0,-100.00,SSE,157,0.0,-999.0,95,-99.99,,,-99.99,0.000000,,2013-04-08 03:58:00,